sensor_id;sensor_type;location;lat;lon;timestamp;temperature;humidity
33811;DHT22;20119;48.334;16.206;2023-04-25T00:02:22;9.20;99.90
33811;DHT22;20119;48.334;16.206;2023-04-25T00:04:51;9.10;99.90
33811;DHT22;20119;48.334;16.206;2023-04-25T00:07:18;9.20;99.90
33811;DHT22;20119;48.334;16.206;2023-04-25T00:09:46;9.20;99.90
33811;DHT22;20119;48.334;16.206;2023-04-25T00:12:14;9.10;99.90
33811;DHT22;20119;48.334;16.206;2023-04-25T00:14:42;9.10;99.90
33811;DHT22;20119;48.334;16.206;2023-04-25T00:17:12;9.10;99.90
33811;DHT22;20119;48.334;16.206;2023-04-25T00:19:40;9.10;99.90
33811;DHT22;20119;48.334;16.206;2023-04-25T00:22:08;9.10;99.90
33811;DHT22;20119;48.334;16.206;2023-04-25T00:24:35;9.10;99.90
33811;DHT22;20119;48.334;16.206;2023-04-25T00:27:04;9.10;99.90
33811;DHT22;20119;48.334;16.206;2023-04-25T00:29:31;9.00;99.90
33811;DHT22;20119;48.334;16.206;2023-04-25T00:31:59;9.00;99.90
33811;DHT22;20119;48.334;16.206;2023-04-25T00:34:28;9.00;99.90
33811;DHT22;20119;48.334;16.206;2023-04-25T00:36:56;9.00;99.90
33811;DHT22;20119;48.334;16.206;2023-04-25T00:39:24;9.10;99.90
33811;DHT22;20119;48.334;16.206;2023-04-25T00:41:52;9.00;99.90
33811;DHT22;20119;48.334;16.206;2023-04-25T00:44:22;9.00;99.90
33811;DHT22;20119;48.334;16.206;2023-04-25T00:46:50;9.00;99.90
33811;DHT22;20119;48.334;16.206;2023-04-25T00:49:19;9.00;99.90
33811;DHT22;20119;48.334;16.206;2023-04-25T00:51:48;9.00;99.90
33811;DHT22;20119;48.334;16.206;2023-04-25T00:54:16;8.90;99.90
33811;DHT22;20119;48.334;16.206;2023-04-25T00:56:45;9.00;99.90
33811;DHT22;20119;48.334;16.206;2023-04-25T00:59:13;9.00;99.90
33811;DHT22;20119;48.334;16.206;2023-04-25T01:01:41;9.00;99.90
33811;DHT22;20119;48.334;16.206;2023-04-25T01:04:09;9.00;99.90
33811;DHT22;20119;48.334;16.206;2023-04-25T01:06:37;9.00;99.90
33811;DHT22;20119;48.334;16.206;2023-04-25T01:09:07;9.00;99.90
33811;DHT22;20119;48.334;16.206;2023-04-25T01:11:36;8.90;99.90
33811;DHT22;20119;48.334;16.206;2023-04-25T01:14:03;8.90;99.90
33811;DHT22;20119;48.334;16.206;2023-04-25T01:16:30;8.90;99.90
33811;DHT22;20119;48.334;16.206;2023-04-25T01:18:59;8.90;99.90
33811;DHT22;20119;48.334;16.206;2023-04-25T01:21:29;8.90;99.90
33811;DHT22;20119;48.334;16.206;2023-04-25T01:23:58;8.90;99.90
33811;DHT22;20119;48.334;16.206;2023-04-25T01:26:25;8.80;99.90
33811;DHT22;20119;48.334;16.206;2023-04-25T01:28:53;8.80;99.90
33811;DHT22;20119;48.334;16.206;2023-04-25T01:31:20;8.80;99.90
33811;DHT22;20119;48.334;16.206;2023-04-25T01:33:47;8.80;99.90
33811;DHT22;20119;48.334;16.206;2023-04-25T01:36:16;8.80;99.90
33811;DHT22;20119;48.334;16.206;2023-04-25T01:38:46;8.80;99.90
33811;DHT22;20119;48.334;16.206;2023-04-25T01:41:14;8.80;99.90
33811;DHT22;20119;48.334;16.206;2023-04-25T01:43:43;8.80;99.90
33811;DHT22;20119;48.334;16.206;2023-04-25T01:46:11;8.80;99.90
33811;DHT22;20119;48.334;16.206;2023-04-25T01:48:39;8.80;99.90
33811;DHT22;20119;48.334;16.206;2023-04-25T01:51:07;8.70;99.90
33811;DHT22;20119;48.334;16.206;2023-04-25T01:53:37;8.70;99.90
33811;DHT22;20119;48.334;16.206;2023-04-25T01:56:07;8.70;99.90
33811;DHT22;20119;48.334;16.206;2023-04-25T01:58:34;8.70;99.90
33811;DHT22;20119;48.334;16.206;2023-04-25T02:01:02;8.60;99.90
33811;DHT22;20119;48.334;16.206;2023-04-25T02:03:31;8.60;99.90
33811;DHT22;20119;48.334;16.206;2023-04-25T02:05:58;8.60;99.90
33811;DHT22;20119;48.334;16.206;2023-04-25T02:08:25;8.70;99.90
33811;DHT22;20119;48.334;16.206;2023-04-25T02:10:54;8.70;99.90
33811;DHT22;20119;48.334;16.206;2023-04-25T02:13:23;8.70;99.90
33811;DHT22;20119;48.334;16.206;2023-04-25T02:15:50;8.70;99.90
33811;DHT22;20119;48.334;16.206;2023-04-25T02:18:18;8.70;99.90
33811;DHT22;20119;48.334;16.206;2023-04-25T02:20:46;8.80;99.90
33811;DHT22;20119;48.334;16.206;2023-04-25T02:23:14;8.70;99.90
33811;DHT22;20119;48.334;16.206;2023-04-25T02:25:42;8.70;99.90
33811;DHT22;20119;48.334;16.206;2023-04-25T02:28:10;8.80;99.90
33811;DHT22;20119;48.334;16.206;2023-04-25T02:30:40;8.70;99.90
33811;DHT22;20119;48.334;16.206;2023-04-25T02:33:08;8.70;99.90
33811;DHT22;20119;48.334;16.206;2023-04-25T02:35:36;8.70;99.90
33811;DHT22;20119;48.334;16.206;2023-04-25T02:38:03;8.70;99.90
33811;DHT22;20119;48.334;16.206;2023-04-25T02:40:31;8.70;99.90
33811;DHT22;20119;48.334;16.206;2023-04-25T02:42:59;8.60;99.90
33811;DHT22;20119;48.334;16.206;2023-04-25T02:45:27;8.60;99.90
33811;DHT22;20119;48.334;16.206;2023-04-25T02:47:56;8.60;99.90
33811;DHT22;20119;48.334;16.206;2023-04-25T02:50:23;8.60;99.90
33811;DHT22;20119;48.334;16.206;2023-04-25T02:53:09;8.50;99.90
33811;DHT22;20119;48.334;16.206;2023-04-25T02:55:36;8.50;99.90
33811;DHT22;20119;48.334;16.206;2023-04-25T02:58:05;8.50;99.90
33811;DHT22;20119;48.334;16.206;2023-04-25T03:00:33;8.50;99.90
33811;DHT22;20119;48.334;16.206;2023-04-25T03:03:02;8.40;99.90
33811;DHT22;20119;48.334;16.206;2023-04-25T03:05:30;8.40;99.90
33811;DHT22;20119;48.334;16.206;2023-04-25T03:07:58;8.30;99.90
33811;DHT22;20119;48.334;16.206;2023-04-25T03:10:27;8.40;99.90
33811;DHT22;20119;48.334;16.206;2023-04-25T03:12:57;8.30;99.90
33811;DHT22;20119;48.334;16.206;2023-04-25T03:15:25;8.30;99.90
33811;DHT22;20119;48.334;16.206;2023-04-25T03:17:53;8.30;99.90
33811;DHT22;20119;48.334;16.206;2023-04-25T03:20:23;8.30;99.90
33811;DHT22;20119;48.334;16.206;2023-04-25T03:22:51;8.30;99.90
33811;DHT22;20119;48.334;16.206;2023-04-25T03:25:20;8.30;99.90
33811;DHT22;20119;48.334;16.206;2023-04-25T03:27:47;8.30;99.90
33811;DHT22;20119;48.334;16.206;2023-04-25T03:30:14;8.20;99.90
33811;DHT22;20119;48.334;16.206;2023-04-25T03:32:41;8.20;99.90
33811;DHT22;20119;48.334;16.206;2023-04-25T03:35:09;8.20;99.90
33811;DHT22;20119;48.334;16.206;2023-04-25T03:37:38;8.10;99.90
33811;DHT22;20119;48.334;16.206;2023-04-25T03:40:07;8.10;99.90
33811;DHT22;20119;48.334;16.206;2023-04-25T03:42:35;8.10;99.90
33811;DHT22;20119;48.334;16.206;2023-04-25T03:45:03;8.00;99.90
33811;DHT22;20119;48.334;16.206;2023-04-25T03:47:31;7.90;99.90
33811;DHT22;20119;48.334;16.206;2023-04-25T03:49:59;7.90;99.90
33811;DHT22;20119;48.334;16.206;2023-04-25T03:52:28;7.80;99.90
33811;DHT22;20119;48.334;16.206;2023-04-25T03:54:56;7.80;99.90
33811;DHT22;20119;48.334;16.206;2023-04-25T03:57:24;7.80;99.90
33811;DHT22;20119;48.334;16.206;2023-04-25T03:59:51;7.70;99.90
33811;DHT22;20119;48.334;16.206;2023-04-25T04:02:18;7.70;99.90
33811;DHT22;20119;48.334;16.206;2023-04-25T04:04:46;7.60;99.90
33811;DHT22;20119;48.334;16.206;2023-04-25T04:07:14;7.50;99.90
33811;DHT22;20119;48.334;16.206;2023-04-25T04:09:42;7.50;99.90
33811;DHT22;20119;48.334;16.206;2023-04-25T04:12:11;7.40;99.90
33811;DHT22;20119;48.334;16.206;2023-04-25T04:14:39;7.30;99.90
33811;DHT22;20119;48.334;16.206;2023-04-25T04:17:07;7.30;99.90
33811;DHT22;20119;48.334;16.206;2023-04-25T04:19:35;7.30;99.90
33811;DHT22;20119;48.334;16.206;2023-04-25T04:22:02;7.20;99.90
33811;DHT22;20119;48.334;16.206;2023-04-25T04:24:29;7.10;99.90
33811;DHT22;20119;48.334;16.206;2023-04-25T04:26:57;7.10;99.90
33811;DHT22;20119;48.334;16.206;2023-04-25T04:29:26;7.00;99.90
33811;DHT22;20119;48.334;16.206;2023-04-25T04:31:52;7.00;99.90
33811;DHT22;20119;48.334;16.206;2023-04-25T04:34:19;6.90;99.90
33811;DHT22;20119;48.334;16.206;2023-04-25T04:36:47;6.90;99.90
33811;DHT22;20119;48.334;16.206;2023-04-25T04:39:15;6.80;99.90
33811;DHT22;20119;48.334;16.206;2023-04-25T04:41:43;6.80;99.90
33811;DHT22;20119;48.334;16.206;2023-04-25T04:44:11;6.80;99.90
33811;DHT22;20119;48.334;16.206;2023-04-25T04:46:40;6.80;99.90
33811;DHT22;20119;48.334;16.206;2023-04-25T04:49:08;6.80;99.90
33811;DHT22;20119;48.334;16.206;2023-04-25T04:51:35;6.70;99.90
33811;DHT22;20119;48.334;16.206;2023-04-25T04:54:03;6.70;99.90
33811;DHT22;20119;48.334;16.206;2023-04-25T04:56:32;6.60;99.90
33811;DHT22;20119;48.334;16.206;2023-04-25T04:58:59;6.60;99.90
33811;DHT22;20119;48.334;16.206;2023-04-25T05:01:27;6.70;99.90
33811;DHT22;20119;48.334;16.206;2023-04-25T05:03:57;6.70;99.90
33811;DHT22;20119;48.334;16.206;2023-04-25T05:06:26;6.70;99.90
33811;DHT22;20119;48.334;16.206;2023-04-25T05:08:54;6.70;99.90
33811;DHT22;20119;48.334;16.206;2023-04-25T05:11:22;6.70;99.90
33811;DHT22;20119;48.334;16.206;2023-04-25T05:13:51;6.80;99.90
33811;DHT22;20119;48.334;16.206;2023-04-25T05:16:20;6.80;99.90
33811;DHT22;20119;48.334;16.206;2023-04-25T05:18:48;6.90;99.90
33811;DHT22;20119;48.334;16.206;2023-04-25T05:21:17;7.20;99.90
33811;DHT22;20119;48.334;16.206;2023-04-25T05:23:44;7.70;99.90
33811;DHT22;20119;48.334;16.206;2023-04-25T05:26:11;8.30;99.90
33811;DHT22;20119;48.334;16.206;2023-04-25T05:28:40;8.90;99.90
33811;DHT22;20119;48.334;16.206;2023-04-25T05:31:09;9.40;99.90
33811;DHT22;20119;48.334;16.206;2023-04-25T05:33:38;9.80;99.90
33811;DHT22;20119;48.334;16.206;2023-04-25T05:36:07;10.20;99.90
33811;DHT22;20119;48.334;16.206;2023-04-25T05:38:36;10.80;99.90
33811;DHT22;20119;48.334;16.206;2023-04-25T05:41:04;11.10;99.90
33811;DHT22;20119;48.334;16.206;2023-04-25T05:43:31;11.10;99.90
33811;DHT22;20119;48.334;16.206;2023-04-25T05:45:59;11.60;99.90
33811;DHT22;20119;48.334;16.206;2023-04-25T05:48:26;11.70;99.90
33811;DHT22;20119;48.334;16.206;2023-04-25T05:50:54;12.00;99.90
33811;DHT22;20119;48.334;16.206;2023-04-25T05:53:21;12.20;99.90
33811;DHT22;20119;48.334;16.206;2023-04-25T05:55:50;12.80;99.90
33811;DHT22;20119;48.334;16.206;2023-04-25T05:58:19;12.60;99.90
33811;DHT22;20119;48.334;16.206;2023-04-25T06:00:46;13.10;99.90
33811;DHT22;20119;48.334;16.206;2023-04-25T06:03:13;14.10;99.90
33811;DHT22;20119;48.334;16.206;2023-04-25T06:05:41;13.60;99.90
33811;DHT22;20119;48.334;16.206;2023-04-25T06:08:09;13.80;99.90
33811;DHT22;20119;48.334;16.206;2023-04-25T06:10:38;13.60;99.90
33811;DHT22;20119;48.334;16.206;2023-04-25T06:13:08;13.60;99.90
33811;DHT22;20119;48.334;16.206;2023-04-25T06:15:35;13.70;99.90
33811;DHT22;20119;48.334;16.206;2023-04-25T06:18:03;14.20;99.90
33811;DHT22;20119;48.334;16.206;2023-04-25T06:20:30;15.40;99.90
33811;DHT22;20119;48.334;16.206;2023-04-25T06:22:58;15.20;99.90
33811;DHT22;20119;48.334;16.206;2023-04-25T06:25:26;16.10;99.90
33811;DHT22;20119;48.334;16.206;2023-04-25T06:27:53;16.10;99.90
33811;DHT22;20119;48.334;16.206;2023-04-25T06:30:23;15.80;99.90
33811;DHT22;20119;48.334;16.206;2023-04-25T06:32:51;15.90;99.90
33811;DHT22;20119;48.334;16.206;2023-04-25T06:35:18;15.50;99.90
33811;DHT22;20119;48.334;16.206;2023-04-25T06:37:46;15.60;99.90
33811;DHT22;20119;48.334;16.206;2023-04-25T06:40:14;16.00;99.90
33811;DHT22;20119;48.334;16.206;2023-04-25T06:42:43;17.00;99.90
33811;DHT22;20119;48.334;16.206;2023-04-25T06:45:10;16.80;99.90
33811;DHT22;20119;48.334;16.206;2023-04-25T06:47:39;16.40;99.90
33811;DHT22;20119;48.334;16.206;2023-04-25T06:50:07;16.40;99.90
33811;DHT22;20119;48.334;16.206;2023-04-25T06:52:35;16.60;99.90
33811;DHT22;20119;48.334;16.206;2023-04-25T06:55:03;16.60;99.90
33811;DHT22;20119;48.334;16.206;2023-04-25T06:57:32;17.60;99.90
33811;DHT22;20119;48.334;16.206;2023-04-25T06:59:59;17.70;99.90
33811;DHT22;20119;48.334;16.206;2023-04-25T07:02:27;17.70;99.90
33811;DHT22;20119;48.334;16.206;2023-04-25T07:04:56;17.20;99.90
33811;DHT22;20119;48.334;16.206;2023-04-25T07:07:25;16.80;99.90
33811;DHT22;20119;48.334;16.206;2023-04-25T07:09:53;17.40;99.90
33811;DHT22;20119;48.334;16.206;2023-04-25T07:12:21;18.30;99.90
33811;DHT22;20119;48.334;16.206;2023-04-25T07:14:49;18.30;99.90
33811;DHT22;20119;48.334;16.206;2023-04-25T07:17:17;18.30;99.90
33811;DHT22;20119;48.334;16.206;2023-04-25T07:19:45;18.50;99.90
33811;DHT22;20119;48.334;16.206;2023-04-25T07:22:14;18.80;99.90
33811;DHT22;20119;48.334;16.206;2023-04-25T07:24:41;18.40;99.90
33811;DHT22;20119;48.334;16.206;2023-04-25T07:27:13;18.30;99.90
33811;DHT22;20119;48.334;16.206;2023-04-25T07:29:40;18.20;99.90
33811;DHT22;20119;48.334;16.206;2023-04-25T07:32:08;18.40;99.90
33811;DHT22;20119;48.334;16.206;2023-04-25T07:34:37;19.10;99.90
33811;DHT22;20119;48.334;16.206;2023-04-25T07:37:05;18.40;99.90
33811;DHT22;20119;48.334;16.206;2023-04-25T07:39:34;17.80;99.90
33811;DHT22;20119;48.334;16.206;2023-04-25T07:42:03;17.50;99.90
33811;DHT22;20119;48.334;16.206;2023-04-25T07:44:33;18.70;99.90
33811;DHT22;20119;48.334;16.206;2023-04-25T07:47:05;18.50;99.90
33811;DHT22;20119;48.334;16.206;2023-04-25T07:49:34;18.30;99.90
33811;DHT22;20119;48.334;16.206;2023-04-25T07:52:02;18.30;99.90
33811;DHT22;20119;48.334;16.206;2023-04-25T07:54:30;17.90;99.90
33811;DHT22;20119;48.334;16.206;2023-04-25T07:56:59;19.30;99.90
33811;DHT22;20119;48.334;16.206;2023-04-25T07:59:27;18.40;99.90
33811;DHT22;20119;48.334;16.206;2023-04-25T08:01:55;18.60;99.90
33811;DHT22;20119;48.334;16.206;2023-04-25T08:04:25;17.80;99.90
33811;DHT22;20119;48.334;16.206;2023-04-25T08:06:53;17.30;99.90
33811;DHT22;20119;48.334;16.206;2023-04-25T08:09:22;18.60;99.90
33811;DHT22;20119;48.334;16.206;2023-04-25T08:11:51;18.50;99.90
33811;DHT22;20119;48.334;16.206;2023-04-25T08:14:20;18.10;99.90
33811;DHT22;20119;48.334;16.206;2023-04-25T08:16:47;17.80;99.90
33811;DHT22;20119;48.334;16.206;2023-04-25T08:19:15;17.50;99.90
33811;DHT22;20119;48.334;16.206;2023-04-25T08:21:43;18.00;99.90
33811;DHT22;20119;48.334;16.206;2023-04-25T08:24:10;18.60;99.90
33811;DHT22;20119;48.334;16.206;2023-04-25T08:26:38;17.50;99.90
33811;DHT22;20119;48.334;16.206;2023-04-25T08:29:06;17.50;99.90
33811;DHT22;20119;48.334;16.206;2023-04-25T08:31:37;16.80;99.90
33811;DHT22;20119;48.334;16.206;2023-04-25T08:34:04;17.10;99.90
33811;DHT22;20119;48.334;16.206;2023-04-25T08:36:32;16.50;99.90
33811;DHT22;20119;48.334;16.206;2023-04-25T08:39:00;16.40;99.90
33811;DHT22;20119;48.334;16.206;2023-04-25T08:41:27;17.20;99.90
33811;DHT22;20119;48.334;16.206;2023-04-25T08:43:56;18.60;99.90
33811;DHT22;20119;48.334;16.206;2023-04-25T08:46:25;19.20;99.90
33811;DHT22;20119;48.334;16.206;2023-04-25T08:49:00;19.60;99.90
33811;DHT22;20119;48.334;16.206;2023-04-25T08:51:32;18.60;99.90
33811;DHT22;20119;48.334;16.206;2023-04-25T08:54:08;19.70;99.90
33811;DHT22;20119;48.334;16.206;2023-04-25T08:56:36;20.50;99.90
33811;DHT22;20119;48.334;16.206;2023-04-25T08:59:03;20.40;99.90
33811;DHT22;20119;48.334;16.206;2023-04-25T09:01:34;21.30;99.90
33811;DHT22;20119;48.334;16.206;2023-04-25T09:04:03;21.30;98.20
33811;DHT22;20119;48.334;16.206;2023-04-25T09:06:32;19.20;99.20
33811;DHT22;20119;48.334;16.206;2023-04-25T09:09:03;19.30;99.90
33811;DHT22;20119;48.334;16.206;2023-04-25T09:11:32;18.90;99.90
33811;DHT22;20119;48.334;16.206;2023-04-25T09:14:15;17.60;99.90
33811;DHT22;20119;48.334;16.206;2023-04-25T09:17:01;17.90;99.90
33811;DHT22;20119;48.334;16.206;2023-04-25T09:19:31;17.60;99.90
33811;DHT22;20119;48.334;16.206;2023-04-25T09:22:02;18.10;99.90
33811;DHT22;20119;48.334;16.206;2023-04-25T09:24:34;17.80;99.90
33811;DHT22;20119;48.334;16.206;2023-04-25T09:27:06;17.10;99.90
33811;DHT22;20119;48.334;16.206;2023-04-25T09:29:36;16.80;99.90
33811;DHT22;20119;48.334;16.206;2023-04-25T09:32:14;16.50;99.90
33811;DHT22;20119;48.334;16.206;2023-04-25T09:34:44;16.40;99.90
33811;DHT22;20119;48.334;16.206;2023-04-25T09:37:18;15.90;99.90
33811;DHT22;20119;48.334;16.206;2023-04-25T09:39:48;15.60;99.90
33811;DHT22;20119;48.334;16.206;2023-04-25T09:42:16;15.70;99.90
33811;DHT22;20119;48.334;16.206;2023-04-25T09:44:45;15.20;99.90
33811;DHT22;20119;48.334;16.206;2023-04-25T09:47:15;15.00;99.90
33811;DHT22;20119;48.334;16.206;2023-04-25T09:49:45;14.70;99.90
33811;DHT22;20119;48.334;16.206;2023-04-25T09:52:14;14.10;99.90
33811;DHT22;20119;48.334;16.206;2023-04-25T09:54:42;14.00;99.90
33811;DHT22;20119;48.334;16.206;2023-04-25T09:57:12;14.00;99.90
33811;DHT22;20119;48.334;16.206;2023-04-25T09:59:42;14.30;99.90
33811;DHT22;20119;48.334;16.206;2023-04-25T10:02:11;14.20;99.90
33811;DHT22;20119;48.334;16.206;2023-04-25T10:04:39;14.40;99.90
33811;DHT22;20119;48.334;16.206;2023-04-25T10:07:09;14.70;99.90
33811;DHT22;20119;48.334;16.206;2023-04-25T10:09:39;15.60;99.90
33811;DHT22;20119;48.334;16.206;2023-04-25T10:12:07;15.90;99.90
33811;DHT22;20119;48.334;16.206;2023-04-25T10:14:35;16.00;99.90
33811;DHT22;20119;48.334;16.206;2023-04-25T10:17:02;16.20;99.90
33811;DHT22;20119;48.334;16.206;2023-04-25T10:19:31;16.70;99.90
33811;DHT22;20119;48.334;16.206;2023-04-25T10:22:07;16.60;99.90
33811;DHT22;20119;48.334;16.206;2023-04-25T10:24:37;16.60;99.90
33811;DHT22;20119;48.334;16.206;2023-04-25T10:27:05;16.80;99.90
33811;DHT22;20119;48.334;16.206;2023-04-25T10:29:32;17.30;99.90
33811;DHT22;20119;48.334;16.206;2023-04-25T10:32:01;17.70;99.90
33811;DHT22;20119;48.334;16.206;2023-04-25T10:34:39;17.30;99.90
33811;DHT22;20119;48.334;16.206;2023-04-25T10:37:09;17.20;99.90
33811;DHT22;20119;48.334;16.206;2023-04-25T10:39:41;17.30;99.90
33811;DHT22;20119;48.334;16.206;2023-04-25T10:42:09;17.30;99.90
33811;DHT22;20119;48.334;16.206;2023-04-25T10:44:37;17.60;99.90
33811;DHT22;20119;48.334;16.206;2023-04-25T10:47:07;18.00;99.90
33811;DHT22;20119;48.334;16.206;2023-04-25T10:49:37;17.80;99.90
33811;DHT22;20119;48.334;16.206;2023-04-25T10:52:15;17.60;99.90
33811;DHT22;20119;48.334;16.206;2023-04-25T10:54:46;17.80;99.90
33811;DHT22;20119;48.334;16.206;2023-04-25T10:57:36;17.10;99.90
33811;DHT22;20119;48.334;16.206;2023-04-25T11:00:12;17.00;99.90
33811;DHT22;20119;48.334;16.206;2023-04-25T11:02:48;16.30;99.90
33811;DHT22;20119;48.334;16.206;2023-04-25T11:05:26;15.30;99.90
33811;DHT22;20119;48.334;16.206;2023-04-25T11:07:58;14.50;99.90
33811;DHT22;20119;48.334;16.206;2023-04-25T11:10:27;14.00;99.90
33811;DHT22;20119;48.334;16.206;2023-04-25T11:12:55;14.10;99.90
33811;DHT22;20119;48.334;16.206;2023-04-25T11:15:23;14.30;99.90
33811;DHT22;20119;48.334;16.206;2023-04-25T11:17:51;14.70;99.90
33811;DHT22;20119;48.334;16.206;2023-04-25T11:20:19;14.70;99.90
33811;DHT22;20119;48.334;16.206;2023-04-25T11:22:47;14.90;99.90
33811;DHT22;20119;48.334;16.206;2023-04-25T11:25:15;15.20;99.90
33811;DHT22;20119;48.334;16.206;2023-04-25T11:27:51;15.60;99.90
33811;DHT22;20119;48.334;16.206;2023-04-25T11:30:20;15.90;99.90
33811;DHT22;20119;48.334;16.206;2023-04-25T11:32:48;15.80;99.90
33811;DHT22;20119;48.334;16.206;2023-04-25T11:35:16;16.20;99.90
33811;DHT22;20119;48.334;16.206;2023-04-25T11:37:44;16.00;99.90
33811;DHT22;20119;48.334;16.206;2023-04-25T11:40:13;15.50;99.90
33811;DHT22;20119;48.334;16.206;2023-04-25T11:42:47;15.20;99.90
33811;DHT22;20119;48.334;16.206;2023-04-25T11:45:16;14.80;99.90
33811;DHT22;20119;48.334;16.206;2023-04-25T11:47:45;14.70;99.90
33811;DHT22;20119;48.334;16.206;2023-04-25T11:50:13;14.90;99.90
33811;DHT22;20119;48.334;16.206;2023-04-25T11:52:42;14.90;99.90
33811;DHT22;20119;48.334;16.206;2023-04-25T11:55:12;15.20;99.90
33811;DHT22;20119;48.334;16.206;2023-04-25T11:57:42;15.30;99.90
33811;DHT22;20119;48.334;16.206;2023-04-25T12:00:11;15.60;99.90
33811;DHT22;20119;48.334;16.206;2023-04-25T12:02:45;16.00;99.90
33811;DHT22;20119;48.334;16.206;2023-04-25T12:05:14;16.10;99.90
33811;DHT22;20119;48.334;16.206;2023-04-25T12:07:43;15.70;99.90
33811;DHT22;20119;48.334;16.206;2023-04-25T12:10:12;15.30;99.90
33811;DHT22;20119;48.334;16.206;2023-04-25T12:12:42;15.10;99.90
33811;DHT22;20119;48.334;16.206;2023-04-25T12:15:11;14.70;99.90
33811;DHT22;20119;48.334;16.206;2023-04-25T12:17:41;15.00;99.90
33811;DHT22;20119;48.334;16.206;2023-04-25T12:20:13;15.30;99.90
33811;DHT22;20119;48.334;16.206;2023-04-25T12:22:41;15.40;99.90
33811;DHT22;20119;48.334;16.206;2023-04-25T12:25:13;15.70;99.90
33811;DHT22;20119;48.334;16.206;2023-04-25T12:27:40;15.90;99.90
33811;DHT22;20119;48.334;16.206;2023-04-25T12:30:10;16.00;99.90
33811;DHT22;20119;48.334;16.206;2023-04-25T12:32:38;15.80;99.90
33811;DHT22;20119;48.334;16.206;2023-04-25T12:35:06;16.00;99.90
33811;DHT22;20119;48.334;16.206;2023-04-25T12:37:35;15.90;99.90
33811;DHT22;20119;48.334;16.206;2023-04-25T12:40:02;16.00;99.90
33811;DHT22;20119;48.334;16.206;2023-04-25T12:42:32;15.90;99.90
33811;DHT22;20119;48.334;16.206;2023-04-25T12:44:59;15.60;99.90
33811;DHT22;20119;48.334;16.206;2023-04-25T12:47:28;15.70;99.90
33811;DHT22;20119;48.334;16.206;2023-04-25T12:49:56;15.70;99.90
33811;DHT22;20119;48.334;16.206;2023-04-25T12:52:23;15.40;99.90
33811;DHT22;20119;48.334;16.206;2023-04-25T12:54:52;15.70;99.90
33811;DHT22;20119;48.334;16.206;2023-04-25T12:57:19;15.90;99.90
33811;DHT22;20119;48.334;16.206;2023-04-25T12:59:47;15.80;99.90
33811;DHT22;20119;48.334;16.206;2023-04-25T13:02:14;15.70;99.90
33811;DHT22;20119;48.334;16.206;2023-04-25T13:04:42;15.80;99.90
33811;DHT22;20119;48.334;16.206;2023-04-25T13:07:09;15.80;99.90
33811;DHT22;20119;48.334;16.206;2023-04-25T13:09:36;15.80;99.90
33811;DHT22;20119;48.334;16.206;2023-04-25T13:12:05;16.00;99.90
33811;DHT22;20119;48.334;16.206;2023-04-25T13:14:33;16.30;99.90
33811;DHT22;20119;48.334;16.206;2023-04-25T13:17:02;16.60;99.90
33811;DHT22;20119;48.334;16.206;2023-04-25T13:19:29;16.70;99.90
33811;DHT22;20119;48.334;16.206;2023-04-25T13:21:56;16.60;99.90
33811;DHT22;20119;48.334;16.206;2023-04-25T13:24:25;16.40;99.90
33811;DHT22;20119;48.334;16.206;2023-04-25T13:26:53;16.50;99.90
33811;DHT22;20119;48.334;16.206;2023-04-25T13:29:22;16.30;99.90
33811;DHT22;20119;48.334;16.206;2023-04-25T13:31:49;16.40;99.90
33811;DHT22;20119;48.334;16.206;2023-04-25T13:34:17;16.20;99.90
33811;DHT22;20119;48.334;16.206;2023-04-25T13:36:44;16.30;99.90
33811;DHT22;20119;48.334;16.206;2023-04-25T13:39:11;16.30;99.90
33811;DHT22;20119;48.334;16.206;2023-04-25T13:41:40;16.10;99.90
33811;DHT22;20119;48.334;16.206;2023-04-25T13:44:07;16.30;99.90
33811;DHT22;20119;48.334;16.206;2023-04-25T13:46:37;16.40;99.90
33811;DHT22;20119;48.334;16.206;2023-04-25T13:49:04;16.40;99.90
33811;DHT22;20119;48.334;16.206;2023-04-25T13:51:32;16.40;99.90
33811;DHT22;20119;48.334;16.206;2023-04-25T13:53:59;15.90;99.90
33811;DHT22;20119;48.334;16.206;2023-04-25T13:56:27;15.20;99.90
33811;DHT22;20119;48.334;16.206;2023-04-25T13:58:55;14.60;99.90
33811;DHT22;20119;48.334;16.206;2023-04-25T14:01:23;14.10;99.90
33811;DHT22;20119;48.334;16.206;2023-04-25T14:03:53;13.40;99.90
33811;DHT22;20119;48.334;16.206;2023-04-25T14:06:20;13.10;99.90
33811;DHT22;20119;48.334;16.206;2023-04-25T14:08:49;12.90;99.90
33811;DHT22;20119;48.334;16.206;2023-04-25T14:11:17;12.80;99.90
33811;DHT22;20119;48.334;16.206;2023-04-25T14:13:45;12.50;99.90
33811;DHT22;20119;48.334;16.206;2023-04-25T14:16:13;12.70;99.90
33811;DHT22;20119;48.334;16.206;2023-04-25T14:18:40;12.50;99.90
33811;DHT22;20119;48.334;16.206;2023-04-25T14:21:09;12.40;99.90
33811;DHT22;20119;48.334;16.206;2023-04-25T14:23:36;12.30;99.90
33811;DHT22;20119;48.334;16.206;2023-04-25T14:26:04;12.40;99.90
33811;DHT22;20119;48.334;16.206;2023-04-25T14:28:31;12.80;99.90
33811;DHT22;20119;48.334;16.206;2023-04-25T14:31:00;13.00;99.90
33811;DHT22;20119;48.334;16.206;2023-04-25T14:33:28;13.20;99.90
33811;DHT22;20119;48.334;16.206;2023-04-25T14:35:57;13.30;99.90
33811;DHT22;20119;48.334;16.206;2023-04-25T14:38:26;13.30;99.90
33811;DHT22;20119;48.334;16.206;2023-04-25T14:40:53;13.20;99.90
33811;DHT22;20119;48.334;16.206;2023-04-25T14:43:21;13.30;99.90
33811;DHT22;20119;48.334;16.206;2023-04-25T14:45:49;13.30;99.90
33811;DHT22;20119;48.334;16.206;2023-04-25T14:48:18;13.40;99.90
33811;DHT22;20119;48.334;16.206;2023-04-25T14:50:46;13.40;99.90
33811;DHT22;20119;48.334;16.206;2023-04-25T14:53:14;13.50;99.90
33811;DHT22;20119;48.334;16.206;2023-04-25T14:55:43;13.30;99.90
33811;DHT22;20119;48.334;16.206;2023-04-25T14:58:10;13.10;99.90
33811;DHT22;20119;48.334;16.206;2023-04-25T15:00:38;13.20;99.90
33811;DHT22;20119;48.334;16.206;2023-04-25T15:03:06;13.30;99.90
33811;DHT22;20119;48.334;16.206;2023-04-25T15:05:35;13.30;99.90
33811;DHT22;20119;48.334;16.206;2023-04-25T15:08:03;13.30;99.90
33811;DHT22;20119;48.334;16.206;2023-04-25T15:10:30;13.30;99.90
33811;DHT22;20119;48.334;16.206;2023-04-25T15:12:59;13.20;99.90
33811;DHT22;20119;48.334;16.206;2023-04-25T15:15:27;13.00;99.90
33811;DHT22;20119;48.334;16.206;2023-04-25T15:17:54;13.00;99.90
33811;DHT22;20119;48.334;16.206;2023-04-25T15:20:22;13.00;99.90
33811;DHT22;20119;48.334;16.206;2023-04-25T15:22:50;12.80;99.90
33811;DHT22;20119;48.334;16.206;2023-04-25T15:25:18;12.60;99.90
33811;DHT22;20119;48.334;16.206;2023-04-25T15:27:47;12.70;99.90
33811;DHT22;20119;48.334;16.206;2023-04-25T15:30:17;12.70;99.90
33811;DHT22;20119;48.334;16.206;2023-04-25T15:32:45;12.60;99.90